sensor_id;sensor_type;location;lat;lon;timestamp;P1;durP1;ratioP1;P2;durP2;ratioP2
29478;SDS011;16437;41.836;23.480;2022-10-26T00:01:51;11.18;;;4.12;;
29478;SDS011;16437;41.836;23.480;2022-10-26T00:07:16;10.25;;;3.58;;
29478;SDS011;16437;41.836;23.480;2022-10-26T00:12:43;7.58;;;3.40;;
29478;SDS011;16437;41.836;23.480;2022-10-26T00:18:11;7.10;;;3.37;;
29478;SDS011;16437;41.836;23.480;2022-10-26T00:23:37;7.22;;;3.62;;
29478;SDS011;16437;41.836;23.480;2022-10-26T00:29:04;9.40;;;3.70;;
29478;SDS011;16437;41.836;23.480;2022-10-26T00:34:31;10.15;;;3.98;;
29478;SDS011;16437;41.836;23.480;2022-10-26T00:39:58;7.65;;;3.60;;
29478;SDS011;16437;41.836;23.480;2022-10-26T00:45:24;8.68;;;3.65;;
29478;SDS011;16437;41.836;23.480;2022-10-26T00:50:52;9.95;;;4.20;;
29478;SDS011;16437;41.836;23.480;2022-10-26T00:56:20;7.55;;;3.72;;
29478;SDS011;16437;41.836;23.480;2022-10-26T01:01:47;8.45;;;4.08;;
29478;SDS011;16437;41.836;23.480;2022-10-26T01:07:15;12.43;;;4.17;;
29478;SDS011;16437;41.836;23.480;2022-10-26T01:12:42;8.63;;;3.80;;
29478;SDS011;16437;41.836;23.480;2022-10-26T01:18:13;16.12;;;4.58;;
29478;SDS011;16437;41.836;23.480;2022-10-26T01:35:05;9.10;;;3.47;;
29478;SDS011;16437;41.836;23.480;2022-10-26T01:40:53;12.65;;;4.00;;
29478;SDS011;16437;41.836;23.480;2022-10-26T01:46:10;7.97;;;3.62;;
29478;SDS011;16437;41.836;23.480;2022-10-26T01:51:41;8.40;;;4.12;;
29478;SDS011;16437;41.836;23.480;2022-10-26T01:57:10;9.53;;;3.80;;
29478;SDS011;16437;41.836;23.480;2022-10-26T02:02:45;8.68;;;3.83;;
29478;SDS011;16437;41.836;23.480;2022-10-26T02:08:18;9.33;;;3.47;;
29478;SDS011;16437;41.836;23.480;2022-10-26T02:13:59;9.40;;;3.40;;
29478;SDS011;16437;41.836;23.480;2022-10-26T02:25:15;8.30;;;4.05;;
29478;SDS011;16437;41.836;23.480;2022-10-26T02:30:43;11.57;;;4.50;;
29478;SDS011;16437;41.836;23.480;2022-10-26T02:36:13;8.10;;;3.50;;
29478;SDS011;16437;41.836;23.480;2022-10-26T02:41:41;9.20;;;3.72;;
29478;SDS011;16437;41.836;23.480;2022-10-26T02:47:09;10.58;;;3.92;;
29478;SDS011;16437;41.836;23.480;2022-10-26T02:58:32;8.90;;;3.45;;
29478;SDS011;16437;41.836;23.480;2022-10-26T03:03:56;6.42;;;3.20;;
29478;SDS011;16437;41.836;23.480;2022-10-26T03:09:23;8.83;;;3.80;;
29478;SDS011;16437;41.836;23.480;2022-10-26T03:14:49;9.85;;;4.17;;
29478;SDS011;16437;41.836;23.480;2022-10-26T03:20:16;8.88;;;3.47;;
29478;SDS011;16437;41.836;23.480;2022-10-26T03:25:42;7.60;;;3.52;;
29478;SDS011;16437;41.836;23.480;2022-10-26T03:31:09;8.88;;;2.98;;
29478;SDS011;16437;41.836;23.480;2022-10-26T03:36:35;7.42;;;3.83;;
29478;SDS011;16437;41.836;23.480;2022-10-26T03:42:02;7.03;;;3.50;;
29478;SDS011;16437;41.836;23.480;2022-10-26T03:47:29;8.80;;;3.75;;
29478;SDS011;16437;41.836;23.480;2022-10-26T03:52:55;6.95;;;3.12;;
29478;SDS011;16437;41.836;23.480;2022-10-26T03:58:21;7.35;;;3.30;;
29478;SDS011;16437;41.836;23.480;2022-10-26T04:03:48;12.70;;;4.20;;
29478;SDS011;16437;41.836;23.480;2022-10-26T04:09:15;10.08;;;4.15;;
29478;SDS011;16437;41.836;23.480;2022-10-26T04:14:41;10.72;;;4.00;;
29478;SDS011;16437;41.836;23.480;2022-10-26T04:20:08;10.03;;;4.35;;
29478;SDS011;16437;41.836;23.480;2022-10-26T04:25:34;9.78;;;4.25;;
29478;SDS011;16437;41.836;23.480;2022-10-26T04:31:01;10.82;;;4.12;;
29478;SDS011;16437;41.836;23.480;2022-10-26T04:36:27;7.45;;;3.90;;
29478;SDS011;16437;41.836;23.480;2022-10-26T04:41:55;11.30;;;5.28;;
29478;SDS011;16437;41.836;23.480;2022-10-26T04:47:21;8.75;;;4.00;;
29478;SDS011;16437;41.836;23.480;2022-10-26T04:52:49;9.68;;;4.47;;
29478;SDS011;16437;41.836;23.480;2022-10-26T04:58:16;12.03;;;4.53;;
29478;SDS011;16437;41.836;23.480;2022-10-26T05:03:42;10.53;;;4.75;;
29478;SDS011;16437;41.836;23.480;2022-10-26T05:09:08;8.90;;;4.42;;
29478;SDS011;16437;41.836;23.480;2022-10-26T05:14:34;8.15;;;4.35;;
29478;SDS011;16437;41.836;23.480;2022-10-26T05:20:01;10.72;;;4.67;;
29478;SDS011;16437;41.836;23.480;2022-10-26T05:25:29;9.98;;;5.00;;
29478;SDS011;16437;41.836;23.480;2022-10-26T05:30:58;9.73;;;4.90;;
29478;SDS011;16437;41.836;23.480;2022-10-26T05:36:24;8.60;;;4.75;;
29478;SDS011;16437;41.836;23.480;2022-10-26T05:41:51;10.40;;;4.97;;
29478;SDS011;16437;41.836;23.480;2022-10-26T05:47:17;8.75;;;4.40;;
29478;SDS011;16437;41.836;23.480;2022-10-26T05:52:44;9.80;;;5.20;;
29478;SDS011;16437;41.836;23.480;2022-10-26T05:58:12;10.25;;;5.25;;
29478;SDS011;16437;41.836;23.480;2022-10-26T06:03:59;11.68;;;5.28;;
29478;SDS011;16437;41.836;23.480;2022-10-26T06:09:26;9.55;;;5.42;;
29478;SDS011;16437;41.836;23.480;2022-10-26T06:14:53;10.45;;;5.25;;
29478;SDS011;16437;41.836;23.480;2022-10-26T06:20:24;9.58;;;4.92;;
29478;SDS011;16437;41.836;23.480;2022-10-26T06:26:01;10.80;;;5.05;;
29478;SDS011;16437;41.836;23.480;2022-10-26T06:31:28;14.10;;;5.70;;
29478;SDS011;16437;41.836;23.480;2022-10-26T06:36:55;11.80;;;6.50;;
29478;SDS011;16437;41.836;23.480;2022-10-26T06:42:23;13.18;;;6.78;;
29478;SDS011;16437;41.836;23.480;2022-10-26T06:47:59;18.23;;;7.87;;
29478;SDS011;16437;41.836;23.480;2022-10-26T06:53:32;14.17;;;6.57;;
29478;SDS011;16437;41.836;23.480;2022-10-26T06:59:07;11.40;;;6.72;;
29478;SDS011;16437;41.836;23.480;2022-10-26T07:04:36;12.80;;;6.60;;
29478;SDS011;16437;41.836;23.480;2022-10-26T07:10:02;15.55;;;7.58;;
29478;SDS011;16437;41.836;23.480;2022-10-26T07:15:31;14.87;;;7.72;;
29478;SDS011;16437;41.836;23.480;2022-10-26T07:20:59;12.75;;;6.85;;
29478;SDS011;16437;41.836;23.480;2022-10-26T07:26:26;13.50;;;6.70;;
29478;SDS011;16437;41.836;23.480;2022-10-26T07:31:52;14.00;;;7.55;;
29478;SDS011;16437;41.836;23.480;2022-10-26T07:37:19;13.22;;;7.15;;
29478;SDS011;16437;41.836;23.480;2022-10-26T07:42:45;15.75;;;6.72;;
29478;SDS011;16437;41.836;23.480;2022-10-26T07:48:12;16.02;;;7.20;;
29478;SDS011;16437;41.836;23.480;2022-10-26T07:53:38;12.98;;;7.40;;
29478;SDS011;16437;41.836;23.480;2022-10-26T07:59:05;10.85;;;6.83;;
29478;SDS011;16437;41.836;23.480;2022-10-26T08:04:31;11.30;;;6.55;;
29478;SDS011;16437;41.836;23.480;2022-10-26T08:09:57;12.20;;;7.12;;
29478;SDS011;16437;41.836;23.480;2022-10-26T08:15:24;13.80;;;6.30;;
29478;SDS011;16437;41.836;23.480;2022-10-26T08:20:50;14.58;;;6.90;;
29478;SDS011;16437;41.836;23.480;2022-10-26T08:26:17;11.63;;;6.22;;
29478;SDS011;16437;41.836;23.480;2022-10-26T08:31:45;14.30;;;7.08;;
29478;SDS011;16437;41.836;23.480;2022-10-26T08:37:12;13.30;;;6.55;;
29478;SDS011;16437;41.836;23.480;2022-10-26T08:42:39;14.03;;;7.30;;
29478;SDS011;16437;41.836;23.480;2022-10-26T08:48:11;12.53;;;6.08;;
29478;SDS011;16437;41.836;23.480;2022-10-26T08:59:39;14.28;;;5.65;;
29478;SDS011;16437;41.836;23.480;2022-10-26T09:05:13;16.20;;;6.53;;
29478;SDS011;16437;41.836;23.480;2022-10-26T09:16:48;12.73;;;5.78;;
29478;SDS011;16437;41.836;23.480;2022-10-26T09:27:47;10.20;;;5.22;;
29478;SDS011;16437;41.836;23.480;2022-10-26T09:33:16;12.07;;;5.67;;
29478;SDS011;16437;41.836;23.480;2022-10-26T09:38:57;12.20;;;5.20;;
29478;SDS011;16437;41.836;23.480;2022-10-26T09:44:35;11.48;;;5.50;;
29478;SDS011;16437;41.836;23.480;2022-10-26T09:50:06;13.72;;;4.70;;
29478;SDS011;16437;41.836;23.480;2022-10-26T09:55:44;13.30;;;4.25;;
29478;SDS011;16437;41.836;23.480;2022-10-26T10:12:31;12.88;;;4.20;;
29478;SDS011;16437;41.836;23.480;2022-10-26T10:17:58;13.53;;;4.37;;
29478;SDS011;16437;41.836;23.480;2022-10-26T10:28:57;12.50;;;3.90;;
29478;SDS011;16437;41.836;23.480;2022-10-26T10:34:31;12.28;;;3.52;;
29478;SDS011;16437;41.836;23.480;2022-10-26T10:40:00;13.85;;;3.20;;
29478;SDS011;16437;41.836;23.480;2022-10-26T10:45:29;13.18;;;3.83;;
29478;SDS011;16437;41.836;23.480;2022-10-26T10:50:58;16.42;;;3.47;;
29478;SDS011;16437;41.836;23.480;2022-10-26T10:56:27;11.93;;;3.08;;
29478;SDS011;16437;41.836;23.480;2022-10-26T11:07:51;12.15;;;3.33;;
29478;SDS011;16437;41.836;23.480;2022-10-26T11:13:19;14.40;;;3.33;;
29478;SDS011;16437;41.836;23.480;2022-10-26T11:18:53;13.45;;;3.12;;
29478;SDS011;16437;41.836;23.480;2022-10-26T11:24:39;10.90;;;2.92;;
29478;SDS011;16437;41.836;23.480;2022-10-26T11:30:17;11.35;;;2.90;;
29478;SDS011;16437;41.836;23.480;2022-10-26T11:36:01;9.95;;;2.85;;
29478;SDS011;16437;41.836;23.480;2022-10-26T11:47:12;12.37;;;2.95;;
29478;SDS011;16437;41.836;23.480;2022-10-26T11:52:37;15.05;;;2.95;;
29478;SDS011;16437;41.836;23.480;2022-10-26T11:58:11;14.07;;;2.77;;
29478;SDS011;16437;41.836;23.480;2022-10-26T12:03:48;10.68;;;2.77;;
29478;SDS011;16437;41.836;23.480;2022-10-26T12:09:19;10.95;;;3.00;;
29478;SDS011;16437;41.836;23.480;2022-10-26T12:31:54;10.13;;;3.08;;
29478;SDS011;16437;41.836;23.480;2022-10-26T12:37:35;10.03;;;2.98;;
29478;SDS011;16437;41.836;23.480;2022-10-26T12:48:48;10.95;;;3.52;;
29478;SDS011;16437;41.836;23.480;2022-10-26T12:59:54;15.83;;;3.22;;
29478;SDS011;16437;41.836;23.480;2022-10-26T13:11:17;11.28;;;3.85;;
29478;SDS011;16437;41.836;23.480;2022-10-26T13:16:45;15.58;;;3.95;;
29478;SDS011;16437;41.836;23.480;2022-10-26T13:22:13;12.30;;;2.95;;
29478;SDS011;16437;41.836;23.480;2022-10-26T13:27:41;13.85;;;3.62;;
29478;SDS011;16437;41.836;23.480;2022-10-26T13:33:18;12.88;;;3.30;;
29478;SDS011;16437;41.836;23.480;2022-10-26T13:38:42;8.73;;;3.37;;
29478;SDS011;16437;41.836;23.480;2022-10-26T13:44:13;15.35;;;4.05;;
29478;SDS011;16437;41.836;23.480;2022-10-26T13:49:45;13.22;;;3.80;;
29478;SDS011;16437;41.836;23.480;2022-10-26T13:55:23;14.05;;;3.80;;
29478;SDS011;16437;41.836;23.480;2022-10-26T14:01:09;13.03;;;3.60;;
29478;SDS011;16437;41.836;23.480;2022-10-26T14:06:38;13.60;;;3.47;;
29478;SDS011;16437;41.836;23.480;2022-10-26T14:12:08;19.98;;;3.92;;
29478;SDS011;16437;41.836;23.480;2022-10-26T14:17:34;12.40;;;3.80;;
29478;SDS011;16437;41.836;23.480;2022-10-26T14:23:01;12.28;;;3.55;;
29478;SDS011;16437;41.836;23.480;2022-10-26T14:28:28;11.85;;;3.60;;
29478;SDS011;16437;41.836;23.480;2022-10-26T14:33:57;11.60;;;3.67;;
29478;SDS011;16437;41.836;23.480;2022-10-26T14:44:57;13.62;;;3.77;;
29478;SDS011;16437;41.836;23.480;2022-10-26T14:50:24;12.33;;;4.10;;
29478;SDS011;16437;41.836;23.480;2022-10-26T14:55:53;11.80;;;4.22;;
29478;SDS011;16437;41.836;23.480;2022-10-26T15:06:49;10.45;;;4.05;;
29478;SDS011;16437;41.836;23.480;2022-10-26T15:12:50;14.58;;;4.67;;
29478;SDS011;16437;41.836;23.480;2022-10-26T15:18:00;11.53;;;4.47;;
29478;SDS011;16437;41.836;23.480;2022-10-26T15:23:28;14.68;;;4.30;;
29478;SDS011;16437;41.836;23.480;2022-10-26T15:28:55;12.30;;;4.47;;
29478;SDS011;16437;41.836;23.480;2022-10-26T15:34:22;14.95;;;4.50;;
29478;SDS011;16437;41.836;23.480;2022-10-26T15:39:49;18.98;;;5.20;;
29478;SDS011;16437;41.836;23.480;2022-10-26T15:50:47;12.45;;;5.40;;
29478;SDS011;16437;41.836;23.480;2022-10-26T15:56:14;12.07;;;5.40;;
29478;SDS011;16437;41.836;23.480;2022-10-26T16:01:43;13.25;;;5.53;;
29478;SDS011;16437;41.836;23.480;2022-10-26T16:07:14;11.83;;;5.90;;
29478;SDS011;16437;41.836;23.480;2022-10-26T16:12:38;12.10;;;5.90;;
29478;SDS011;16437;41.836;23.480;2022-10-26T16:18:05;12.63;;;5.62;;
29478;SDS011;16437;41.836;23.480;2022-10-26T16:23:31;18.30;;;5.72;;
29478;SDS011;16437;41.836;23.480;2022-10-26T16:28:58;11.38;;;5.58;;
29478;SDS011;16437;41.836;23.480;2022-10-26T16:34:24;9.30;;;5.00;;
29478;SDS011;16437;41.836;23.480;2022-10-26T16:39:51;12.35;;;5.30;;
29478;SDS011;16437;41.836;23.480;2022-10-26T16:45:17;8.13;;;4.62;;
29478;SDS011;16437;41.836;23.480;2022-10-26T16:50:43;13.95;;;5.15;;
29478;SDS011;16437;41.836;23.480;2022-10-26T16:56:11;10.82;;;5.22;;
29478;SDS011;16437;41.836;23.480;2022-10-26T17:01:39;12.90;;;4.97;;
29478;SDS011;16437;41.836;23.480;2022-10-26T17:07:05;14.93;;;5.95;;
29478;SDS011;16437;41.836;23.480;2022-10-26T17:12:32;13.10;;;6.50;;
29478;SDS011;16437;41.836;23.480;2022-10-26T17:17:58;12.65;;;6.12;;
29478;SDS011;16437;41.836;23.480;2022-10-26T17:23:24;14.13;;;5.83;;
29478;SDS011;16437;41.836;23.480;2022-10-26T17:28:51;11.93;;;6.05;;
29478;SDS011;16437;41.836;23.480;2022-10-26T17:34:20;17.42;;;7.15;;
29478;SDS011;16437;41.836;23.480;2022-10-26T17:39:47;13.75;;;5.92;;
29478;SDS011;16437;41.836;23.480;2022-10-26T17:45:13;11.83;;;5.72;;
29478;SDS011;16437;41.836;23.480;2022-10-26T17:50:40;14.73;;;5.75;;
29478;SDS011;16437;41.836;23.480;2022-10-26T17:56:10;13.62;;;5.25;;
29478;SDS011;16437;41.836;23.480;2022-10-26T18:01:41;14.03;;;5.65;;
29478;SDS011;16437;41.836;23.480;2022-10-26T18:07:08;9.85;;;4.53;;
29478;SDS011;16437;41.836;23.480;2022-10-26T18:12:34;11.10;;;4.85;;
29478;SDS011;16437;41.836;23.480;2022-10-26T18:18:01;12.10;;;5.10;;
29478;SDS011;16437;41.836;23.480;2022-10-26T18:23:27;11.70;;;4.70;;
29478;SDS011;16437;41.836;23.480;2022-10-26T18:28:54;13.15;;;4.58;;
29478;SDS011;16437;41.836;23.480;2022-10-26T18:34:22;13.65;;;4.67;;
29478;SDS011;16437;41.836;23.480;2022-10-26T18:39:48;12.13;;;4.65;;
29478;SDS011;16437;41.836;23.480;2022-10-26T18:45:14;12.50;;;4.83;;
29478;SDS011;16437;41.836;23.480;2022-10-26T18:50:41;13.00;;;4.28;;
29478;SDS011;16437;41.836;23.480;2022-10-26T18:56:13;9.60;;;4.08;;
29478;SDS011;16437;41.836;23.480;2022-10-26T19:01:36;9.73;;;3.87;;
29478;SDS011;16437;41.836;23.480;2022-10-26T19:07:04;11.55;;;3.87;;
29478;SDS011;16437;41.836;23.480;2022-10-26T19:12:31;8.53;;;3.90;;
29478;SDS011;16437;41.836;23.480;2022-10-26T19:17:58;9.23;;;3.85;;
29478;SDS011;16437;41.836;23.480;2022-10-26T19:23:35;10.23;;;3.55;;
29478;SDS011;16437;41.836;23.480;2022-10-26T19:29:00;8.40;;;3.55;;
29478;SDS011;16437;41.836;23.480;2022-10-26T19:34:29;11.10;;;3.72;;
29478;SDS011;16437;41.836;23.480;2022-10-26T19:39:55;11.65;;;3.92;;
29478;SDS011;16437;41.836;23.480;2022-10-26T19:45:21;9.10;;;3.80;;
29478;SDS011;16437;41.836;23.480;2022-10-26T19:50:48;8.85;;;3.62;;
29478;SDS011;16437;41.836;23.480;2022-10-26T19:56:17;12.10;;;3.65;;
29478;SDS011;16437;41.836;23.480;2022-10-26T20:01:44;10.40;;;3.72;;
29478;SDS011;16437;41.836;23.480;2022-10-26T20:07:10;12.47;;;4.10;;
29478;SDS011;16437;41.836;23.480;2022-10-26T20:12:38;10.13;;;2.80;;
29478;SDS011;16437;41.836;23.480;2022-10-26T20:18:05;7.37;;;2.83;;
29478;SDS011;16437;41.836;23.480;2022-10-26T20:23:33;8.90;;;2.72;;
29478;SDS011;16437;41.836;23.480;2022-10-26T20:29:00;9.60;;;3.47;;
29478;SDS011;16437;41.836;23.480;2022-10-26T20:34:26;7.58;;;3.10;;
29478;SDS011;16437;41.836;23.480;2022-10-26T20:39:53;8.83;;;3.22;;
29478;SDS011;16437;41.836;23.480;2022-10-26T20:45:23;9.15;;;3.25;;
29478;SDS011;16437;41.836;23.480;2022-10-26T20:50:56;5.78;;;2.90;;
29478;SDS011;16437;41.836;23.480;2022-10-26T20:56:27;8.63;;;3.10;;
29478;SDS011;16437;41.836;23.480;2022-10-26T21:01:55;8.58;;;3.60;;
29478;SDS011;16437;41.836;23.480;2022-10-26T21:07:22;7.75;;;3.55;;
29478;SDS011;16437;41.836;23.480;2022-10-26T21:12:48;9.95;;;3.58;;
29478;SDS011;16437;41.836;23.480;2022-10-26T21:18:15;8.03;;;3.20;;
29478;SDS011;16437;41.836;23.480;2022-10-26T21:23:42;6.40;;;3.20;;
29478;SDS011;16437;41.836;23.480;2022-10-26T21:29:09;5.65;;;2.80;;
29478;SDS011;16437;41.836;23.480;2022-10-26T21:34:36;6.53;;;3.10;;
29478;SDS011;16437;41.836;23.480;2022-10-26T21:40:02;9.55;;;3.35;;
29478;SDS011;16437;41.836;23.480;2022-10-26T21:45:29;6.20;;;3.25;;
29478;SDS011;16437;41.836;23.480;2022-10-26T21:50:55;5.22;;;3.30;;
29478;SDS011;16437;41.836;23.480;2022-10-26T21:56:22;6.58;;;3.25;;
29478;SDS011;16437;41.836;23.480;2022-10-26T22:01:48;6.20;;;3.02;;
29478;SDS011;16437;41.836;23.480;2022-10-26T22:07:14;9.15;;;3.67;;
29478;SDS011;16437;41.836;23.480;2022-10-26T22:12:42;5.10;;;3.10;;
29478;SDS011;16437;41.836;23.480;2022-10-26T22:18:09;6.53;;;3.58;;
29478;SDS011;16437;41.836;23.480;2022-10-26T22:23:36;6.60;;;3.83;;
29478;SDS011;16437;41.836;23.480;2022-10-26T22:29:04;8.30;;;3.50;;
29478;SDS011;16437;41.836;23.480;2022-10-26T22:34:31;8.58;;;4.22;;
29478;SDS011;16437;41.836;23.480;2022-10-26T22:39:57;5.60;;;3.80;;
29478;SDS011;16437;41.836;23.480;2022-10-26T22:45:23;9.93;;;4.30;;
29478;SDS011;16437;41.836;23.480;2022-10-26T22:50:49;9.18;;;4.62;;
29478;SDS011;16437;41.836;23.480;2022-10-26T22:56:16;7.40;;;3.80;;
29478;SDS011;16437;41.836;23.480;2022-10-26T23:01:42;7.80;;;4.08;;
29478;SDS011;16437;41.836;23.480;2022-10-26T23:07:09;7.62;;;3.92;;
29478;SDS011;16437;41.836;23.480;2022-10-26T23:12:36;6.25;;;3.67;;
29478;SDS011;16437;41.836;23.480;2022-10-26T23:18:02;9.23;;;3.80;;
29478;SDS011;16437;41.836;23.480;2022-10-26T23:23:29;8.35;;;3.85;;
29478;SDS011;16437;41.836;23.480;2022-10-26T23:28:56;7.40;;;4.17;;
29478;SDS011;16437;41.836;23.480;2022-10-26T23:34:22;7.33;;;4.08;;
29478;SDS011;16437;41.836;23.480;2022-10-26T23:39:48;9.33;;;4.45;;
29478;SDS011;16437;41.836;23.480;2022-10-26T23:45:15;9.60;;;4.47;;
29478;SDS011;16437;41.836;23.480;2022-10-26T23:50:42;8.60;;;4.12;;
29478;SDS011;16437;41.836;23.480;2022-10-26T23:56:09;8.83;;;4.20;;
